createdAt,value
2023-04-19T00:07:51.237Z,53.72
2023-04-19T00:18:00.238Z,53.99
2023-04-19T00:28:05.051Z,55.03
2023-04-19T00:38:07.468Z,56.98
2023-04-19T00:48:09.725Z,58.84
2023-04-19T00:58:14.087Z,62.81
2023-04-19T01:08:15.986Z,63.40
2023-04-19T01:18:19.391Z,64.09
2023-04-19T01:28:23.510Z,65.37
2023-04-19T01:38:30.854Z,66.44
2023-04-19T01:48:36.602Z,65.40
2023-04-19T01:58:38.406Z,66.95
2023-04-19T02:08:40.868Z,67.82
2023-04-19T02:18:48.477Z,69.11
2023-04-19T02:28:53.265Z,71.06
2023-04-19T02:38:56.005Z,74.83
2023-04-19T02:49:01.345Z,74.18
2023-04-19T02:59:04.815Z,73.69
2023-04-19T03:09:06.560Z,81.01
2023-04-19T03:19:08.345Z,88.03
2023-04-19T03:29:14.625Z,95.19
2023-04-19T03:39:17.316Z,100.00
2023-04-19T03:49:19.159Z,100.00
2023-04-19T03:59:21.890Z,100.00
2023-04-19T04:09:25.625Z,100.00
2023-04-19T04:19:27.490Z,100.00
2023-04-19T04:29:32.493Z,100.00
2023-04-19T04:39:39.696Z,100.00
2023-04-19T04:49:41.668Z,100.00
2023-04-19T04:59:43.935Z,100.00
2023-04-19T05:09:45.698Z,100.00
2023-04-19T05:19:47.453Z,100.00
2023-04-19T05:29:59.653Z,85.76
2023-04-19T05:40:01.609Z,77.70
2023-04-19T05:50:04.538Z,73.30
2023-04-19T06:00:08.981Z,72.96
2023-04-19T06:10:10.896Z,62.62
2023-04-19T06:20:14.923Z,61.32
2023-04-19T06:30:21.340Z,57.74
2023-04-19T06:40:24.092Z,53.49
2023-04-19T06:50:27.620Z,51.83
2023-04-19T07:00:29.335Z,53.24
2023-04-19T07:10:31.266Z,49.69
2023-04-19T07:20:33.154Z,48.10
2023-04-19T07:30:36.613Z,44.95
2023-04-19T07:40:38.327Z,43.21
2023-04-19T07:50:40.419Z,41.39
2023-04-19T08:00:42.102Z,38.25
2023-04-19T08:10:44.368Z,39.64
2023-04-19T08:20:47.288Z,39.32
2023-04-19T08:30:50.404Z,37.55
2023-04-19T08:40:53.837Z,33.83
2023-04-19T09:01:11.305Z,31.34
2023-04-19T09:11:20.250Z,29.80
2023-04-19T09:21:29.848Z,32.28
2023-04-19T09:31:47.877Z,28.66
2023-04-19T09:41:54.955Z,33.10
2023-04-19T09:51:58.096Z,28.54
2023-04-19T10:02:01.973Z,30.08
2023-04-19T10:12:19.117Z,24.34
2023-04-19T10:22:28.646Z,20.06
2023-04-19T10:32:38.270Z,31.36
2023-04-19T10:43:11.536Z,39.39
2023-04-19T10:53:51.824Z,36.66
2023-04-19T11:03:57.950Z,26.65
2023-04-19T11:14:04.629Z,34.63
2023-04-19T11:24:11.881Z,27.24
2023-04-19T11:34:15.076Z,33.51
2023-04-19T11:44:21.787Z,23.28
2023-04-19T11:54:27.147Z,28.67
2023-04-19T12:04:32.316Z,23.20
2023-04-19T12:14:35.724Z,28.27
2023-04-19T12:24:39.787Z,25.67
2023-04-19T12:34:41.946Z,30.76
2023-04-19T12:44:46.937Z,38.14
2023-04-19T12:54:48.668Z,37.91
2023-04-19T13:04:52.857Z,40.65
2023-04-19T13:14:54.890Z,41.01
2023-04-19T13:24:57.597Z,37.44
2023-04-19T13:35:01.247Z,32.22
2023-04-19T13:45:03.354Z,33.77
2023-04-19T13:55:07.813Z,27.58
2023-04-19T14:05:10.905Z,28.80
2023-04-19T14:15:13.606Z,40.04
2023-04-19T14:25:20.645Z,43.44
2023-04-19T14:35:22.857Z,39.92
2023-04-19T14:45:27.796Z,38.08
2023-04-19T14:55:30.963Z,39.51
2023-04-19T15:05:36.602Z,40.65
2023-04-19T15:15:39.342Z,40.60
2023-04-19T15:25:49.864Z,42.73
2023-04-19T15:35:54.615Z,44.47
2023-04-19T15:45:56.823Z,46.79
2023-04-19T15:55:58.523Z,46.20
2023-04-19T16:06:00.182Z,46.88
2023-04-19T16:16:02.005Z,44.46
2023-04-19T16:26:04.345Z,45.01
2023-04-19T16:36:06.536Z,48.63
2023-04-19T16:46:11.348Z,51.20
2023-04-19T16:56:14.280Z,53.88
2023-04-19T17:06:23.305Z,55.41
2023-04-19T17:16:26.101Z,63.07
2023-04-19T17:26:34.481Z,67.52
2023-04-19T17:36:43.124Z,75.89
2023-04-19T17:46:45.930Z,83.37
2023-04-19T17:56:49.843Z,90.49
2023-04-19T18:07:04.868Z,96.73
2023-04-19T18:17:08.660Z,100.00
2023-04-19T18:27:15.510Z,100.00
2023-04-19T18:37:19.273Z,100.00
2023-04-19T18:47:26.756Z,100.00
2023-04-19T18:57:33.173Z,100.00
2023-04-19T19:07:43.289Z,100.00
2023-04-19T19:17:49.880Z,100.00
2023-04-19T19:28:07.021Z,100.00
2023-04-19T19:38:13.984Z,100.00
2023-04-19T19:48:17.835Z,100.00
2023-04-19T20:08:44.364Z,100.00
2023-04-19T20:18:49.748Z,100.00
2023-04-19T20:28:53.823Z,100.00
2023-04-19T20:38:57.666Z,100.00
2023-04-19T20:49:00.104Z,100.00
2023-04-19T20:59:02.077Z,100.00
2023-04-19T21:09:06.138Z,100.00
2023-04-19T21:19:07.810Z,100.00
2023-04-19T21:29:09.492Z,100.00
2023-04-19T21:39:11.079Z,100.00
2023-04-19T21:49:12.913Z,100.00
2023-04-19T21:59:15.535Z,100.00
2023-04-19T22:09:20.352Z,100.00
2023-04-19T22:19:26.887Z,100.00
2023-04-19T22:29:28.702Z,100.00
2023-04-19T22:39:30.593Z,100.00
2023-04-19T22:49:35.251Z,100.00
2023-04-19T22:59:36.895Z,100.00
2023-04-19T23:09:39.464Z,100.00
2023-04-19T23:19:42.135Z,100.00
2023-04-19T23:29:44.131Z,100.00
2023-04-19T23:39:45.857Z,100.00
2023-04-19T23:49:47.775Z,100.00
2023-04-19T23:59:50.720Z,100.00
